sensor_id;sensor_type;location;lat;lon;timestamp;P1;durP1;ratioP1;P2;durP2;ratioP2
41532;SDS011;27262;-35.248;149.138;2023-08-20T00:01:54;1.33;;;0.20;;
41532;SDS011;27262;-35.248;149.138;2023-08-20T00:04:27;2.47;;;0.35;;
41532;SDS011;27262;-35.248;149.138;2023-08-20T00:07:00;0.20;;;0.20;;
41532;SDS011;27262;-35.248;149.138;2023-08-20T00:09:31;1.13;;;0.28;;
41532;SDS011;27262;-35.248;149.138;2023-08-20T00:12:02;0.65;;;0.20;;
41532;SDS011;27262;-35.248;149.138;2023-08-20T00:17:36;0.60;;;0.20;;
41532;SDS011;27262;-35.248;149.138;2023-08-20T00:20:09;0.68;;;0.20;;
41532;SDS011;27262;-35.248;149.138;2023-08-20T00:22:41;0.20;;;0.20;;
41532;SDS011;27262;-35.248;149.138;2023-08-20T00:25:14;2.58;;;0.30;;
41532;SDS011;27262;-35.248;149.138;2023-08-20T00:27:45;0.20;;;0.20;;
41532;SDS011;27262;-35.248;149.138;2023-08-20T00:30:16;0.47;;;0.30;;
41532;SDS011;27262;-35.248;149.138;2023-08-20T00:32:46;0.20;;;0.20;;
41532;SDS011;27262;-35.248;149.138;2023-08-20T00:35:17;0.43;;;0.35;;
41532;SDS011;27262;-35.248;149.138;2023-08-20T00:37:47;1.20;;;0.20;;
41532;SDS011;27262;-35.248;149.138;2023-08-20T00:40:18;0.57;;;0.20;;
41532;SDS011;27262;-35.248;149.138;2023-08-20T00:42:48;1.20;;;0.30;;
41532;SDS011;27262;-35.248;149.138;2023-08-20T00:45:18;1.13;;;0.20;;
41532;SDS011;27262;-35.248;149.138;2023-08-20T00:47:49;0.20;;;0.20;;
41532;SDS011;27262;-35.248;149.138;2023-08-20T00:50:20;0.10;;;0.10;;
41532;SDS011;27262;-35.248;149.138;2023-08-20T00:52:51;0.60;;;0.20;;
41532;SDS011;27262;-35.248;149.138;2023-08-20T00:55:21;0.20;;;0.20;;
41532;SDS011;27262;-35.248;149.138;2023-08-20T00:57:52;0.10;;;0.10;;
41532;SDS011;27262;-35.248;149.138;2023-08-20T01:00:23;2.17;;;0.30;;
41532;SDS011;27262;-35.248;149.138;2023-08-20T01:02:53;1.98;;;0.22;;
41532;SDS011;27262;-35.248;149.138;2023-08-20T01:05:24;0.20;;;0.20;;
41532;SDS011;27262;-35.248;149.138;2023-08-20T01:08:02;0.13;;;0.13;;
41532;SDS011;27262;-35.248;149.138;2023-08-20T01:13:36;0.32;;;0.17;;
41532;SDS011;27262;-35.248;149.138;2023-08-20T01:16:06;1.63;;;0.30;;
41532;SDS011;27262;-35.248;149.138;2023-08-20T01:18:37;0.68;;;0.30;;
41532;SDS011;27262;-35.248;149.138;2023-08-20T01:21:15;2.97;;;0.20;;
41532;SDS011;27262;-35.248;149.138;2023-08-20T01:27:19;2.05;;;0.22;;
41532;SDS011;27262;-35.248;149.138;2023-08-20T01:30:14;1.63;;;0.30;;
41532;SDS011;27262;-35.248;149.138;2023-08-20T01:32:45;2.40;;;0.43;;
41532;SDS011;27262;-35.248;149.138;2023-08-20T01:35:18;1.85;;;0.30;;
41532;SDS011;27262;-35.248;149.138;2023-08-20T01:37:48;0.22;;;0.20;;
41532;SDS011;27262;-35.248;149.138;2023-08-20T01:40:19;1.60;;;0.20;;
41532;SDS011;27262;-35.248;149.138;2023-08-20T01:42:49;0.38;;;0.20;;
41532;SDS011;27262;-35.248;149.138;2023-08-20T01:45:20;3.80;;;0.40;;
41532;SDS011;27262;-35.248;149.138;2023-08-20T01:47:50;2.88;;;0.30;;
41532;SDS011;27262;-35.248;149.138;2023-08-20T01:50:21;0.35;;;0.20;;
41532;SDS011;27262;-35.248;149.138;2023-08-20T01:52:51;0.20;;;0.20;;
41532;SDS011;27262;-35.248;149.138;2023-08-20T01:55:21;0.60;;;0.20;;
41532;SDS011;27262;-35.248;149.138;2023-08-20T01:57:51;3.45;;;0.35;;
41532;SDS011;27262;-35.248;149.138;2023-08-20T02:00:22;2.42;;;0.40;;
41532;SDS011;27262;-35.248;149.138;2023-08-20T02:02:53;0.10;;;0.10;;
41532;SDS011;27262;-35.248;149.138;2023-08-20T02:05:23;0.77;;;0.20;;
41532;SDS011;27262;-35.248;149.138;2023-08-20T02:07:54;0.52;;;0.30;;
41532;SDS011;27262;-35.248;149.138;2023-08-20T02:10:24;1.75;;;0.40;;
41532;SDS011;27262;-35.248;149.138;2023-08-20T02:12:54;0.40;;;0.20;;
41532;SDS011;27262;-35.248;149.138;2023-08-20T02:15:25;1.23;;;0.30;;
41532;SDS011;27262;-35.248;149.138;2023-08-20T02:17:56;0.73;;;0.20;;
41532;SDS011;27262;-35.248;149.138;2023-08-20T02:20:26;1.38;;;0.25;;
41532;SDS011;27262;-35.248;149.138;2023-08-20T02:22:57;3.88;;;0.30;;
41532;SDS011;27262;-35.248;149.138;2023-08-20T02:25:27;1.88;;;0.35;;
41532;SDS011;27262;-35.248;149.138;2023-08-20T02:27:58;3.20;;;0.20;;
41532;SDS011;27262;-35.248;149.138;2023-08-20T02:30:28;0.63;;;0.30;;
41532;SDS011;27262;-35.248;149.138;2023-08-20T02:32:59;0.20;;;0.20;;
41532;SDS011;27262;-35.248;149.138;2023-08-20T02:35:30;1.02;;;0.30;;
41532;SDS011;27262;-35.248;149.138;2023-08-20T02:38:00;8.07;;;0.30;;
41532;SDS011;27262;-35.248;149.138;2023-08-20T02:40:31;1.98;;;0.30;;
41532;SDS011;27262;-35.248;149.138;2023-08-20T02:43:02;1.13;;;0.30;;
41532;SDS011;27262;-35.248;149.138;2023-08-20T02:45:33;1.58;;;0.30;;
41532;SDS011;27262;-35.248;149.138;2023-08-20T02:48:10;0.30;;;0.20;;
41532;SDS011;27262;-35.248;149.138;2023-08-20T02:50:42;2.65;;;0.20;;
41532;SDS011;27262;-35.248;149.138;2023-08-20T02:53:12;2.40;;;0.32;;
41532;SDS011;27262;-35.248;149.138;2023-08-20T02:55:42;1.58;;;0.30;;
41532;SDS011;27262;-35.248;149.138;2023-08-20T02:58:13;3.20;;;0.38;;
41532;SDS011;27262;-35.248;149.138;2023-08-20T03:00:43;1.23;;;0.40;;
41532;SDS011;27262;-35.248;149.138;2023-08-20T03:03:14;2.33;;;0.28;;
41532;SDS011;27262;-35.248;149.138;2023-08-20T03:05:44;5.47;;;0.55;;
41532;SDS011;27262;-35.248;149.138;2023-08-20T03:08:14;1.73;;;0.30;;
41532;SDS011;27262;-35.248;149.138;2023-08-20T03:10:47;1.42;;;0.30;;
41532;SDS011;27262;-35.248;149.138;2023-08-20T03:13:18;2.65;;;0.30;;
41532;SDS011;27262;-35.248;149.138;2023-08-20T03:15:48;4.32;;;0.50;;
41532;SDS011;27262;-35.248;149.138;2023-08-20T03:18:19;0.80;;;0.25;;
41532;SDS011;27262;-35.248;149.138;2023-08-20T03:20:49;0.55;;;0.25;;
41532;SDS011;27262;-35.248;149.138;2023-08-20T03:23:20;0.90;;;0.30;;
41532;SDS011;27262;-35.248;149.138;2023-08-20T03:25:50;2.25;;;0.28;;
41532;SDS011;27262;-35.248;149.138;2023-08-20T03:28:21;0.57;;;0.30;;
41532;SDS011;27262;-35.248;149.138;2023-08-20T03:30:51;0.70;;;0.30;;
41532;SDS011;27262;-35.248;149.138;2023-08-20T03:33:21;0.57;;;0.20;;
41532;SDS011;27262;-35.248;149.138;2023-08-20T03:35:51;0.95;;;0.43;;
41532;SDS011;27262;-35.248;149.138;2023-08-20T03:38:25;2.03;;;0.32;;
41532;SDS011;27262;-35.248;149.138;2023-08-20T03:40:56;1.60;;;0.40;;
41532;SDS011;27262;-35.248;149.138;2023-08-20T03:43:26;0.40;;;0.32;;
41532;SDS011;27262;-35.248;149.138;2023-08-20T03:45:56;1.75;;;0.30;;
41532;SDS011;27262;-35.248;149.138;2023-08-20T03:48:27;1.02;;;0.35;;
41532;SDS011;27262;-35.248;149.138;2023-08-20T03:50:57;0.90;;;0.30;;
41532;SDS011;27262;-35.248;149.138;2023-08-20T03:53:27;1.20;;;0.20;;
41532;SDS011;27262;-35.248;149.138;2023-08-20T03:55:58;0.57;;;0.40;;
41532;SDS011;27262;-35.248;149.138;2023-08-20T03:58:28;2.17;;;0.68;;
41532;SDS011;27262;-35.248;149.138;2023-08-20T04:00:58;0.30;;;0.20;;
41532;SDS011;27262;-35.248;149.138;2023-08-20T04:03:29;0.90;;;0.22;;
41532;SDS011;27262;-35.248;149.138;2023-08-20T04:05:59;1.88;;;0.30;;
41532;SDS011;27262;-35.248;149.138;2023-08-20T04:08:32;3.65;;;0.57;;
41532;SDS011;27262;-35.248;149.138;2023-08-20T04:11:02;1.02;;;0.47;;
41532;SDS011;27262;-35.248;149.138;2023-08-20T04:13:32;3.47;;;0.32;;
41532;SDS011;27262;-35.248;149.138;2023-08-20T04:16:03;1.17;;;0.47;;
41532;SDS011;27262;-35.248;149.138;2023-08-20T04:18:33;0.55;;;0.22;;
41532;SDS011;27262;-35.248;149.138;2023-08-20T04:21:04;2.20;;;0.20;;
41532;SDS011;27262;-35.248;149.138;2023-08-20T04:23:35;0.52;;;0.30;;
41532;SDS011;27262;-35.248;149.138;2023-08-20T04:26:06;2.03;;;0.40;;
41532;SDS011;27262;-35.248;149.138;2023-08-20T04:28:36;2.40;;;0.30;;
41532;SDS011;27262;-35.248;149.138;2023-08-20T04:31:07;3.08;;;0.30;;
41532;SDS011;27262;-35.248;149.138;2023-08-20T04:33:38;1.13;;;0.35;;
41532;SDS011;27262;-35.248;149.138;2023-08-20T04:36:08;0.68;;;0.30;;
41532;SDS011;27262;-35.248;149.138;2023-08-20T04:38:38;0.28;;;0.28;;
41532;SDS011;27262;-35.248;149.138;2023-08-20T04:41:08;2.20;;;0.30;;
41532;SDS011;27262;-35.248;149.138;2023-08-20T04:43:39;0.30;;;0.30;;
41532;SDS011;27262;-35.248;149.138;2023-08-20T04:46:09;2.30;;;0.40;;
41532;SDS011;27262;-35.248;149.138;2023-08-20T04:48:40;0.25;;;0.25;;
41532;SDS011;27262;-35.248;149.138;2023-08-20T04:51:10;3.00;;;0.45;;
41532;SDS011;27262;-35.248;149.138;2023-08-20T04:53:40;0.45;;;0.30;;
41532;SDS011;27262;-35.248;149.138;2023-08-20T04:56:11;1.45;;;0.30;;
41532;SDS011;27262;-35.248;149.138;2023-08-20T04:58:41;1.60;;;0.30;;
41532;SDS011;27262;-35.248;149.138;2023-08-20T05:01:11;1.77;;;0.32;;
41532;SDS011;27262;-35.248;149.138;2023-08-20T05:03:42;5.80;;;0.50;;
41532;SDS011;27262;-35.248;149.138;2023-08-20T05:06:12;8.30;;;0.85;;
41532;SDS011;27262;-35.248;149.138;2023-08-20T05:08:43;7.13;;;0.40;;
41532;SDS011;27262;-35.248;149.138;2023-08-20T05:11:13;5.00;;;0.50;;
41532;SDS011;27262;-35.248;149.138;2023-08-20T05:13:45;10.02;;;0.85;;
41532;SDS011;27262;-35.248;149.138;2023-08-20T05:16:16;6.00;;;0.57;;
41532;SDS011;27262;-35.248;149.138;2023-08-20T05:18:46;5.40;;;0.50;;
41532;SDS011;27262;-35.248;149.138;2023-08-20T05:21:17;7.85;;;0.70;;
41532;SDS011;27262;-35.248;149.138;2023-08-20T05:23:49;5.63;;;0.63;;
41532;SDS011;27262;-35.248;149.138;2023-08-20T05:26:21;6.57;;;0.50;;
41532;SDS011;27262;-35.248;149.138;2023-08-20T05:28:52;8.60;;;0.90;;
41532;SDS011;27262;-35.248;149.138;2023-08-20T05:31:22;7.20;;;1.33;;
41532;SDS011;27262;-35.248;149.138;2023-08-20T05:33:53;14.07;;;0.90;;
41532;SDS011;27262;-35.248;149.138;2023-08-20T05:36:24;9.95;;;0.93;;
41532;SDS011;27262;-35.248;149.138;2023-08-20T05:38:54;13.35;;;0.55;;
41532;SDS011;27262;-35.248;149.138;2023-08-20T05:41:24;21.33;;;1.17;;
41532;SDS011;27262;-35.248;149.138;2023-08-20T05:43:55;20.65;;;1.45;;
41532;SDS011;27262;-35.248;149.138;2023-08-20T05:46:25;10.25;;;0.60;;
41532;SDS011;27262;-35.248;149.138;2023-08-20T05:48:55;8.73;;;0.90;;
41532;SDS011;27262;-35.248;149.138;2023-08-20T05:51:26;10.05;;;0.70;;
41532;SDS011;27262;-35.248;149.138;2023-08-20T05:53:56;20.02;;;1.33;;
41532;SDS011;27262;-35.248;149.138;2023-08-20T05:56:26;17.83;;;1.00;;
41532;SDS011;27262;-35.248;149.138;2023-08-20T05:58:57;10.13;;;0.93;;
41532;SDS011;27262;-35.248;149.138;2023-08-20T06:01:27;18.63;;;1.25;;
41532;SDS011;27262;-35.248;149.138;2023-08-20T06:03:57;10.82;;;1.35;;
41532;SDS011;27262;-35.248;149.138;2023-08-20T06:06:28;21.30;;;1.13;;
41532;SDS011;27262;-35.248;149.138;2023-08-20T06:08:59;19.70;;;1.58;;
41532;SDS011;27262;-35.248;149.138;2023-08-20T06:11:35;9.13;;;1.05;;
41532;SDS011;27262;-35.248;149.138;2023-08-20T06:14:05;12.98;;;1.00;;
41532;SDS011;27262;-35.248;149.138;2023-08-20T06:16:35;17.30;;;1.20;;
41532;SDS011;27262;-35.248;149.138;2023-08-20T06:19:06;16.17;;;1.33;;
41532;SDS011;27262;-35.248;149.138;2023-08-20T06:21:37;11.75;;;1.00;;
41532;SDS011;27262;-35.248;149.138;2023-08-20T06:24:07;13.73;;;1.13;;
41532;SDS011;27262;-35.248;149.138;2023-08-20T06:26:38;16.13;;;1.33;;
41532;SDS011;27262;-35.248;149.138;2023-08-20T06:29:08;11.85;;;1.00;;
41532;SDS011;27262;-35.248;149.138;2023-08-20T06:31:39;18.95;;;1.00;;
41532;SDS011;27262;-35.248;149.138;2023-08-20T06:34:09;24.52;;;1.90;;
41532;SDS011;27262;-35.248;149.138;2023-08-20T06:36:41;15.75;;;1.48;;
41532;SDS011;27262;-35.248;149.138;2023-08-20T06:39:12;16.55;;;1.15;;
41532;SDS011;27262;-35.248;149.138;2023-08-20T06:41:43;14.30;;;0.82;;
41532;SDS011;27262;-35.248;149.138;2023-08-20T06:44:14;11.68;;;1.23;;
41532;SDS011;27262;-35.248;149.138;2023-08-20T06:46:44;14.65;;;0.73;;
41532;SDS011;27262;-35.248;149.138;2023-08-20T06:49:15;15.20;;;1.13;;
41532;SDS011;27262;-35.248;149.138;2023-08-20T06:51:45;13.38;;;0.90;;
41532;SDS011;27262;-35.248;149.138;2023-08-20T06:54:15;22.60;;;1.35;;
41532;SDS011;27262;-35.248;149.138;2023-08-20T06:56:46;13.07;;;1.15;;
41532;SDS011;27262;-35.248;149.138;2023-08-20T06:59:16;5.15;;;0.82;;
41532;SDS011;27262;-35.248;149.138;2023-08-20T07:01:48;14.02;;;1.13;;
41532;SDS011;27262;-35.248;149.138;2023-08-20T07:04:18;10.50;;;0.93;;
41532;SDS011;27262;-35.248;149.138;2023-08-20T07:06:48;6.95;;;1.25;;
41532;SDS011;27262;-35.248;149.138;2023-08-20T07:09:19;4.75;;;0.80;;
41532;SDS011;27262;-35.248;149.138;2023-08-20T07:11:50;7.45;;;0.80;;
41532;SDS011;27262;-35.248;149.138;2023-08-20T07:14:20;5.97;;;0.68;;
41532;SDS011;27262;-35.248;149.138;2023-08-20T07:16:51;8.10;;;0.70;;
41532;SDS011;27262;-35.248;149.138;2023-08-20T07:19:21;10.05;;;0.68;;
41532;SDS011;27262;-35.248;149.138;2023-08-20T07:21:52;7.00;;;0.80;;
41532;SDS011;27262;-35.248;149.138;2023-08-20T07:24:22;9.20;;;0.82;;
41532;SDS011;27262;-35.248;149.138;2023-08-20T07:26:54;12.32;;;0.98;;
41532;SDS011;27262;-35.248;149.138;2023-08-20T07:29:29;7.85;;;0.70;;
41532;SDS011;27262;-35.248;149.138;2023-08-20T07:32:02;5.93;;;0.60;;
41532;SDS011;27262;-35.248;149.138;2023-08-20T07:34:33;5.20;;;0.65;;
41532;SDS011;27262;-35.248;149.138;2023-08-20T07:37:03;9.18;;;0.93;;
41532;SDS011;27262;-35.248;149.138;2023-08-20T07:39:34;4.05;;;0.98;;
41532;SDS011;27262;-35.248;149.138;2023-08-20T07:42:07;5.75;;;0.63;;
41532;SDS011;27262;-35.248;149.138;2023-08-20T07:44:38;10.68;;;1.00;;
41532;SDS011;27262;-35.248;149.138;2023-08-20T07:47:09;10.05;;;0.70;;
41532;SDS011;27262;-35.248;149.138;2023-08-20T07:49:39;6.50;;;0.70;;
41532;SDS011;27262;-35.248;149.138;2023-08-20T07:52:09;5.63;;;0.88;;
41532;SDS011;27262;-35.248;149.138;2023-08-20T07:54:40;6.65;;;0.75;;
41532;SDS011;27262;-35.248;149.138;2023-08-20T07:57:13;2.60;;;0.60;;
41532;SDS011;27262;-35.248;149.138;2023-08-20T07:59:44;8.63;;;0.80;;
41532;SDS011;27262;-35.248;149.138;2023-08-20T08:02:15;4.82;;;0.73;;
41532;SDS011;27262;-35.248;149.138;2023-08-20T08:04:45;4.93;;;0.63;;
41532;SDS011;27262;-35.248;149.138;2023-08-20T08:07:16;7.82;;;0.98;;
41532;SDS011;27262;-35.248;149.138;2023-08-20T08:09:46;3.97;;;0.50;;
41532;SDS011;27262;-35.248;149.138;2023-08-20T08:12:17;3.97;;;0.80;;
41532;SDS011;27262;-35.248;149.138;2023-08-20T08:14:48;2.75;;;0.82;;
41532;SDS011;27262;-35.248;149.138;2023-08-20T08:17:18;2.90;;;0.65;;
41532;SDS011;27262;-35.248;149.138;2023-08-20T08:19:49;5.03;;;0.88;;
41532;SDS011;27262;-35.248;149.138;2023-08-20T08:22:22;1.45;;;0.60;;
41532;SDS011;27262;-35.248;149.138;2023-08-20T08:24:52;5.97;;;0.75;;
41532;SDS011;27262;-35.248;149.138;2023-08-20T08:27:23;5.20;;;1.00;;
41532;SDS011;27262;-35.248;149.138;2023-08-20T08:29:53;5.28;;;1.05;;
41532;SDS011;27262;-35.248;149.138;2023-08-20T08:32:24;5.82;;;0.77;;
41532;SDS011;27262;-35.248;149.138;2023-08-20T08:34:55;3.28;;;0.70;;
41532;SDS011;27262;-35.248;149.138;2023-08-20T08:37:25;1.50;;;0.50;;
41532;SDS011;27262;-35.248;149.138;2023-08-20T08:39:55;2.63;;;0.65;;
41532;SDS011;27262;-35.248;149.138;2023-08-20T08:42:26;4.32;;;0.75;;
41532;SDS011;27262;-35.248;149.138;2023-08-20T08:44:56;3.70;;;0.70;;
41532;SDS011;27262;-35.248;149.138;2023-08-20T08:47:28;5.53;;;0.77;;
41532;SDS011;27262;-35.248;149.138;2023-08-20T08:49:59;2.22;;;0.50;;
41532;SDS011;27262;-35.248;149.138;2023-08-20T08:52:31;5.25;;;0.57;;
41532;SDS011;27262;-35.248;149.138;2023-08-20T08:55:02;4.13;;;0.73;;
41532;SDS011;27262;-35.248;149.138;2023-08-20T08:57:37;8.75;;;1.35;;
41532;SDS011;27262;-35.248;149.138;2023-08-20T09:00:08;5.03;;;1.10;;
41532;SDS011;27262;-35.248;149.138;2023-08-20T09:02:38;3.30;;;1.13;;
41532;SDS011;27262;-35.248;149.138;2023-08-20T09:05:09;4.95;;;1.33;;
41532;SDS011;27262;-35.248;149.138;2023-08-20T09:07:42;3.47;;;1.33;;
41532;SDS011;27262;-35.248;149.138;2023-08-20T09:10:16;3.42;;;1.45;;
41532;SDS011;27262;-35.248;149.138;2023-08-20T09:12:47;3.15;;;1.23;;
41532;SDS011;27262;-35.248;149.138;2023-08-20T09:15:17;6.28;;;1.10;;
41532;SDS011;27262;-35.248;149.138;2023-08-20T09:17:48;4.90;;;1.02;;
41532;SDS011;27262;-35.248;149.138;2023-08-20T09:20:24;3.22;;;1.10;;
41532;SDS011;27262;-35.248;149.138;2023-08-20T09:23:13;3.63;;;1.10;;
41532;SDS011;27262;-35.248;149.138;2023-08-20T09:25:44;3.40;;;1.52;;
41532;SDS011;27262;-35.248;149.138;2023-08-20T09:28:14;5.13;;;1.17;;
41532;SDS011;27262;-35.248;149.138;2023-08-20T09:31:06;2.80;;;0.88;;
41532;SDS011;27262;-35.248;149.138;2023-08-20T09:33:58;3.13;;;1.10;;
41532;SDS011;27262;-35.248;149.138;2023-08-20T09:36:34;3.40;;;1.00;;
41532;SDS011;27262;-35.248;149.138;2023-08-20T09:39:04;1.98;;;1.30;;
41532;SDS011;27262;-35.248;149.138;2023-08-20T09:41:35;1.70;;;0.80;;
41532;SDS011;27262;-35.248;149.138;2023-08-20T09:44:06;1.73;;;1.02;;
41532;SDS011;27262;-35.248;149.138;2023-08-20T09:46:38;2.75;;;1.08;;
41532;SDS011;27262;-35.248;149.138;2023-08-20T09:49:11;4.40;;;1.10;;
41532;SDS011;27262;-35.248;149.138;2023-08-20T09:51:46;3.88;;;0.90;;
41532;SDS011;27262;-35.248;149.138;2023-08-20T10:00:05;1.13;;;0.70;;
41532;SDS011;27262;-35.248;149.138;2023-08-20T10:02:41;5.07;;;0.90;;
41532;SDS011;27262;-35.248;149.138;2023-08-20T10:05:12;4.95;;;1.35;;
41532;SDS011;27262;-35.248;149.138;2023-08-20T10:07:44;1.20;;;0.80;;
41532;SDS011;27262;-35.248;149.138;2023-08-20T10:10:16;4.00;;;0.80;;
41532;SDS011;27262;-35.248;149.138;2023-08-20T10:12:47;7.60;;;0.93;;
41532;SDS011;27262;-35.248;149.138;2023-08-20T10:15:17;4.22;;;1.15;;
41532;SDS011;27262;-35.248;149.138;2023-08-20T10:17:48;5.85;;;1.05;;
41532;SDS011;27262;-35.248;149.138;2023-08-20T10:20:19;4.50;;;0.70;;
41532;SDS011;27262;-35.248;149.138;2023-08-20T10:22:50;6.15;;;0.98;;
41532;SDS011;27262;-35.248;149.138;2023-08-20T10:25:24;4.22;;;0.80;;
41532;SDS011;27262;-35.248;149.138;2023-08-20T10:28:10;1.58;;;0.75;;
41532;SDS011;27262;-35.248;149.138;2023-08-20T10:33:55;2.53;;;0.80;;
41532;SDS011;27262;-35.248;149.138;2023-08-20T10:36:27;3.15;;;0.80;;
41532;SDS011;27262;-35.248;149.138;2023-08-20T10:38:57;3.63;;;0.70;;
41532;SDS011;27262;-35.248;149.138;2023-08-20T10:41:34;2.25;;;0.90;;
41532;SDS011;27262;-35.248;149.138;2023-08-20T10:44:05;1.83;;;0.73;;
41532;SDS011;27262;-35.248;149.138;2023-08-20T10:46:36;2.92;;;0.95;;
41532;SDS011;27262;-35.248;149.138;2023-08-20T10:49:22;1.25;;;0.60;;
41532;SDS011;27262;-35.248;149.138;2023-08-20T10:51:52;1.88;;;0.63;;
41532;SDS011;27262;-35.248;149.138;2023-08-20T10:54:25;2.40;;;0.47;;
41532;SDS011;27262;-35.248;149.138;2023-08-20T10:56:57;0.88;;;0.60;;
41532;SDS011;27262;-35.248;149.138;2023-08-20T10:59:28;1.20;;;0.60;;
41532;SDS011;27262;-35.248;149.138;2023-08-20T11:01:59;0.82;;;0.57;;
41532;SDS011;27262;-35.248;149.138;2023-08-20T11:04:30;1.80;;;0.80;;
41532;SDS011;27262;-35.248;149.138;2023-08-20T11:07:01;2.45;;;1.00;;
41532;SDS011;27262;-35.248;149.138;2023-08-20T11:09:33;1.77;;;0.65;;
41532;SDS011;27262;-35.248;149.138;2023-08-20T11:12:04;3.53;;;0.47;;
41532;SDS011;27262;-35.248;149.138;2023-08-20T11:14:34;3.85;;;0.75;;
41532;SDS011;27262;-35.248;149.138;2023-08-20T11:17:05;3.38;;;0.80;;
41532;SDS011;27262;-35.248;149.138;2023-08-20T11:19:36;3.42;;;0.55;;
41532;SDS011;27262;-35.248;149.138;2023-08-20T11:22:08;1.63;;;0.70;;
41532;SDS011;27262;-35.248;149.138;2023-08-20T11:24:41;1.40;;;0.63;;
41532;SDS011;27262;-35.248;149.138;2023-08-20T11:27:12;0.80;;;0.63;;
41532;SDS011;27262;-35.248;149.138;2023-08-20T11:29:42;1.27;;;0.60;;
41532;SDS011;27262;-35.248;149.138;2023-08-20T11:32:16;1.17;;;0.60;;
41532;SDS011;27262;-35.248;149.138;2023-08-20T11:34:46;1.00;;;0.63;;
41532;SDS011;27262;-35.248;149.138;2023-08-20T11:37:25;0.57;;;0.50;;
41532;SDS011;27262;-35.248;149.138;2023-08-20T11:39:57;1.00;;;0.57;;
41532;SDS011;27262;-35.248;149.138;2023-08-20T11:42:27;1.17;;;0.57;;
41532;SDS011;27262;-35.248;149.138;2023-08-20T11:44:58;0.82;;;0.60;;
41532;SDS011;27262;-35.248;149.138;2023-08-20T11:47:29;3.97;;;0.77;;
41532;SDS011;27262;-35.248;149.138;2023-08-20T11:50:07;0.77;;;0.50;;
41532;SDS011;27262;-35.248;149.138;2023-08-20T11:52:39;0.80;;;0.68;;
41532;SDS011;27262;-35.248;149.138;2023-08-20T11:55:09;1.60;;;0.75;;
41532;SDS011;27262;-35.248;149.138;2023-08-20T11:57:40;0.93;;;0.75;;
41532;SDS011;27262;-35.248;149.138;2023-08-20T12:00:10;2.03;;;0.70;;
41532;SDS011;27262;-35.248;149.138;2023-08-20T12:02:55;1.92;;;0.60;;
41532;SDS011;27262;-35.248;149.138;2023-08-20T12:05:30;1.20;;;0.80;;
41532;SDS011;27262;-35.248;149.138;2023-08-20T12:08:01;1.90;;;0.80;;
41532;SDS011;27262;-35.248;149.138;2023-08-20T12:10:34;1.02;;;0.70;;
41532;SDS011;27262;-35.248;149.138;2023-08-20T12:13:04;2.33;;;1.30;;
41532;SDS011;27262;-35.248;149.138;2023-08-20T12:15:35;1.73;;;0.60;;
41532;SDS011;27262;-35.248;149.138;2023-08-20T12:18:05;1.13;;;0.65;;
41532;SDS011;27262;-35.248;149.138;2023-08-20T12:20:37;0.57;;;0.57;;
41532;SDS011;27262;-35.248;149.138;2023-08-20T12:23:08;2.22;;;0.50;;
41532;SDS011;27262;-35.248;149.138;2023-08-20T12:25:38;2.35;;;0.70;;
41532;SDS011;27262;-35.248;149.138;2023-08-20T12:28:08;1.52;;;0.60;;
41532;SDS011;27262;-35.248;149.138;2023-08-20T12:30:39;0.60;;;0.60;;
41532;SDS011;27262;-35.248;149.138;2023-08-20T12:33:09;0.80;;;0.40;;
41532;SDS011;27262;-35.248;149.138;2023-08-20T12:35:40;2.20;;;0.50;;
41532;SDS011;27262;-35.248;149.138;2023-08-20T12:38:10;1.35;;;0.80;;
41532;SDS011;27262;-35.248;149.138;2023-08-20T12:40:41;0.80;;;0.65;;
41532;SDS011;27262;-35.248;149.138;2023-08-20T12:43:11;3.50;;;0.73;;
41532;SDS011;27262;-35.248;149.138;2023-08-20T12:45:41;1.25;;;0.55;;
41532;SDS011;27262;-35.248;149.138;2023-08-20T12:48:12;2.08;;;0.63;;
41532;SDS011;27262;-35.248;149.138;2023-08-20T12:50:42;3.10;;;0.52;;
41532;SDS011;27262;-35.248;149.138;2023-08-20T12:53:12;1.00;;;0.65;;
41532;SDS011;27262;-35.248;149.138;2023-08-20T12:55:43;1.23;;;0.70;;
41532;SDS011;27262;-35.248;149.138;2023-08-20T12:58:13;0.52;;;0.50;;
41532;SDS011;27262;-35.248;149.138;2023-08-20T13:00:43;1.10;;;0.57;;
41532;SDS011;27262;-35.248;149.138;2023-08-20T13:03:14;0.57;;;0.50;;
41532;SDS011;27262;-35.248;149.138;2023-08-20T13:05:45;1.45;;;0.75;;
41532;SDS011;27262;-35.248;149.138;2023-08-20T13:08:15;1.20;;;0.70;;
41532;SDS011;27262;-35.248;149.138;2023-08-20T13:10:55;0.70;;;0.68;;
41532;SDS011;27262;-35.248;149.138;2023-08-20T13:13:26;0.50;;;0.40;;
41532;SDS011;27262;-35.248;149.138;2023-08-20T13:15:57;0.65;;;0.50;;
41532;SDS011;27262;-35.248;149.138;2023-08-20T13:18:28;0.85;;;0.55;;
41532;SDS011;27262;-35.248;149.138;2023-08-20T13:20:59;0.52;;;0.50;;
41532;SDS011;27262;-35.248;149.138;2023-08-20T13:23:32;0.57;;;0.50;;
41532;SDS011;27262;-35.248;149.138;2023-08-20T13:26:03;0.70;;;0.50;;
41532;SDS011;27262;-35.248;149.138;2023-08-20T13:28:35;0.75;;;0.50;;
41532;SDS011;27262;-35.248;149.138;2023-08-20T13:31:06;0.57;;;0.50;;
41532;SDS011;27262;-35.248;149.138;2023-08-20T13:33:36;1.15;;;0.60;;
41532;SDS011;27262;-35.248;149.138;2023-08-20T13:36:07;0.60;;;0.50;;
41532;SDS011;27262;-35.248;149.138;2023-08-20T13:38:37;1.38;;;0.50;;
41532;SDS011;27262;-35.248;149.138;2023-08-20T13:41:07;0.90;;;0.40;;
41532;SDS011;27262;-35.248;149.138;2023-08-20T13:43:38;0.70;;;0.63;;
41532;SDS011;27262;-35.248;149.138;2023-08-20T13:46:08;0.88;;;0.57;;
41532;SDS011;27262;-35.248;149.138;2023-08-20T13:48:39;0.40;;;0.40;;
41532;SDS011;27262;-35.248;149.138;2023-08-20T13:51:09;0.77;;;0.50;;
41532;SDS011;27262;-35.248;149.138;2023-08-20T13:53:41;0.45;;;0.45;;
41532;SDS011;27262;-35.248;149.138;2023-08-20T13:56:11;1.38;;;0.60;;
41532;SDS011;27262;-35.248;149.138;2023-08-20T13:58:41;0.63;;;0.40;;
41532;SDS011;27262;-35.248;149.138;2023-08-20T14:01:12;0.77;;;0.50;;
41532;SDS011;27262;-35.248;149.138;2023-08-20T14:03:42;0.38;;;0.38;;
41532;SDS011;27262;-35.248;149.138;2023-08-20T14:06:13;0.50;;;0.50;;
41532;SDS011;27262;-35.248;149.138;2023-08-20T14:08:43;0.60;;;0.52;;
41532;SDS011;27262;-35.248;149.138;2023-08-20T14:11:13;0.35;;;0.30;;
41532;SDS011;27262;-35.248;149.138;2023-08-20T14:13:44;0.47;;;0.40;;
41532;SDS011;27262;-35.248;149.138;2023-08-20T14:16:14;0.50;;;0.50;;
41532;SDS011;27262;-35.248;149.138;2023-08-20T14:18:45;0.30;;;0.30;;
41532;SDS011;27262;-35.248;149.138;2023-08-20T14:21:16;0.30;;;0.30;;
41532;SDS011;27262;-35.248;149.138;2023-08-20T14:23:46;0.40;;;0.40;;
41532;SDS011;27262;-35.248;149.138;2023-08-20T14:26:17;0.35;;;0.32;;
41532;SDS011;27262;-35.248;149.138;2023-08-20T14:28:48;0.40;;;0.40;;
41532;SDS011;27262;-35.248;149.138;2023-08-20T14:31:18;0.30;;;0.30;;
41532;SDS011;27262;-35.248;149.138;2023-08-20T14:33:48;0.20;;;0.20;;
41532;SDS011;27262;-35.248;149.138;2023-08-20T14:36:19;0.40;;;0.30;;
41532;SDS011;27262;-35.248;149.138;2023-08-20T14:38:49;0.28;;;0.20;;
41532;SDS011;27262;-35.248;149.138;2023-08-20T14:41:19;0.38;;;0.30;;
41532;SDS011;27262;-35.248;149.138;2023-08-20T14:43:50;0.30;;;0.30;;
41532;SDS011;27262;-35.248;149.138;2023-08-20T14:46:20;0.40;;;0.30;;
41532;SDS011;27262;-35.248;149.138;2023-08-20T14:48:50;0.30;;;0.30;;
41532;SDS011;27262;-35.248;149.138;2023-08-20T14:51:23;0.50;;;0.40;;